sensor_id;sensor_type;location;lat;lon;timestamp;P1;durP1;ratioP1;P2;durP2;ratioP2
44328;SDS011;30039;51.462;6.892;2023-05-15T00:02:45;13.65;;;8.70;;
44328;SDS011;30039;51.462;6.892;2023-05-15T00:05:31;13.10;;;8.38;;
44328;SDS011;30039;51.462;6.892;2023-05-15T00:08:16;13.00;;;8.27;;
44328;SDS011;30039;51.462;6.892;2023-05-15T00:11:02;10.65;;;8.50;;
44328;SDS011;30039;51.462;6.892;2023-05-15T00:13:48;14.07;;;8.88;;
44328;SDS011;30039;51.462;6.892;2023-05-15T00:16:34;17.13;;;10.93;;
44328;SDS011;30039;51.462;6.892;2023-05-15T00:19:20;21.42;;;11.95;;
44328;SDS011;30039;51.462;6.892;2023-05-15T00:22:05;15.88;;;11.25;;
44328;SDS011;30039;51.462;6.892;2023-05-15T00:24:51;15.27;;;10.85;;
44328;SDS011;30039;51.462;6.892;2023-05-15T00:27:37;15.65;;;10.90;;
44328;SDS011;30039;51.462;6.892;2023-05-15T00:30:23;16.85;;;11.88;;
44328;SDS011;30039;51.462;6.892;2023-05-15T00:33:08;18.35;;;12.13;;
44328;SDS011;30039;51.462;6.892;2023-05-15T00:35:54;16.33;;;11.82;;
44328;SDS011;30039;51.462;6.892;2023-05-15T00:38:40;20.08;;;12.98;;
44328;SDS011;30039;51.462;6.892;2023-05-15T00:41:25;18.23;;;12.57;;
44328;SDS011;30039;51.462;6.892;2023-05-15T00:44:14;17.65;;;12.00;;
44328;SDS011;30039;51.462;6.892;2023-05-15T00:47:00;20.58;;;13.18;;
44328;SDS011;30039;51.462;6.892;2023-05-15T00:49:48;17.20;;;12.45;;
44328;SDS011;30039;51.462;6.892;2023-05-15T00:52:35;20.23;;;13.30;;
44328;SDS011;30039;51.462;6.892;2023-05-15T00:55:21;18.92;;;12.63;;
44328;SDS011;30039;51.462;6.892;2023-05-15T00:58:07;21.40;;;13.75;;
44328;SDS011;30039;51.462;6.892;2023-05-15T01:00:54;20.98;;;13.20;;
44328;SDS011;30039;51.462;6.892;2023-05-15T01:03:41;24.85;;;13.95;;
44328;SDS011;30039;51.462;6.892;2023-05-15T01:06:27;19.83;;;14.23;;
44328;SDS011;30039;51.462;6.892;2023-05-15T01:09:14;22.63;;;13.07;;
44328;SDS011;30039;51.462;6.892;2023-05-15T01:12:00;21.95;;;13.95;;
44328;SDS011;30039;51.462;6.892;2023-05-15T01:14:46;20.58;;;14.45;;
44328;SDS011;30039;51.462;6.892;2023-05-15T01:17:32;20.25;;;14.07;;
44328;SDS011;30039;51.462;6.892;2023-05-15T01:20:18;20.38;;;13.95;;
44328;SDS011;30039;51.462;6.892;2023-05-15T01:23:09;24.58;;;15.13;;
44328;SDS011;30039;51.462;6.892;2023-05-15T01:29:03;21.33;;;14.65;;
44328;SDS011;30039;51.462;6.892;2023-05-15T01:31:53;23.77;;;15.27;;
44328;SDS011;30039;51.462;6.892;2023-05-15T01:34:43;23.15;;;15.15;;
44328;SDS011;30039;51.462;6.892;2023-05-15T01:37:30;20.00;;;14.38;;
44328;SDS011;30039;51.462;6.892;2023-05-15T01:40:17;25.23;;;16.38;;
44328;SDS011;30039;51.462;6.892;2023-05-15T01:43:07;22.58;;;14.20;;
44328;SDS011;30039;51.462;6.892;2023-05-15T01:45:54;24.33;;;15.27;;
44328;SDS011;30039;51.462;6.892;2023-05-15T01:48:42;25.42;;;16.52;;
44328;SDS011;30039;51.462;6.892;2023-05-15T01:51:29;23.88;;;15.75;;
44328;SDS011;30039;51.462;6.892;2023-05-15T01:54:16;24.25;;;17.27;;
44328;SDS011;30039;51.462;6.892;2023-05-15T01:57:02;29.27;;;16.38;;
44328;SDS011;30039;51.462;6.892;2023-05-15T01:59:49;27.52;;;17.58;;
44328;SDS011;30039;51.462;6.892;2023-05-15T02:02:35;25.30;;;16.83;;
44328;SDS011;30039;51.462;6.892;2023-05-15T02:05:21;26.02;;;17.13;;
44328;SDS011;30039;51.462;6.892;2023-05-15T02:08:07;24.25;;;15.98;;
44328;SDS011;30039;51.462;6.892;2023-05-15T02:10:59;25.48;;;16.52;;
44328;SDS011;30039;51.462;6.892;2023-05-15T02:13:47;26.08;;;15.85;;
44328;SDS011;30039;51.462;6.892;2023-05-15T02:16:33;23.90;;;15.52;;
44328;SDS011;30039;51.462;6.892;2023-05-15T02:19:19;23.90;;;15.52;;
44328;SDS011;30039;51.462;6.892;2023-05-15T02:22:05;25.92;;;16.13;;
44328;SDS011;30039;51.462;6.892;2023-05-15T02:24:51;24.95;;;15.32;;
44328;SDS011;30039;51.462;6.892;2023-05-15T02:30:42;27.33;;;14.68;;
44328;SDS011;30039;51.462;6.892;2023-05-15T02:33:41;26.50;;;15.55;;
44328;SDS011;30039;51.462;6.892;2023-05-15T02:36:30;18.55;;;13.88;;
44328;SDS011;30039;51.462;6.892;2023-05-15T02:39:16;23.23;;;14.90;;
44328;SDS011;30039;51.462;6.892;2023-05-15T02:42:02;22.05;;;14.88;;
44328;SDS011;30039;51.462;6.892;2023-05-15T02:44:49;23.17;;;15.50;;
44328;SDS011;30039;51.462;6.892;2023-05-15T02:47:37;25.05;;;14.88;;
44328;SDS011;30039;51.462;6.892;2023-05-15T02:50:24;23.60;;;15.18;;
44328;SDS011;30039;51.462;6.892;2023-05-15T02:53:10;23.27;;;15.25;;
44328;SDS011;30039;51.462;6.892;2023-05-15T02:55:58;22.88;;;14.95;;
44328;SDS011;30039;51.462;6.892;2023-05-15T02:58:45;22.80;;;15.18;;
44328;SDS011;30039;51.462;6.892;2023-05-15T03:01:30;28.13;;;14.88;;
44328;SDS011;30039;51.462;6.892;2023-05-15T03:04:16;25.38;;;15.73;;
44328;SDS011;30039;51.462;6.892;2023-05-15T03:07:02;23.25;;;14.93;;
44328;SDS011;30039;51.462;6.892;2023-05-15T03:09:47;21.65;;;14.73;;
44328;SDS011;30039;51.462;6.892;2023-05-15T03:12:33;20.65;;;14.57;;
44328;SDS011;30039;51.462;6.892;2023-05-15T03:15:19;21.25;;;14.65;;
44328;SDS011;30039;51.462;6.892;2023-05-15T03:18:05;23.05;;;14.80;;
44328;SDS011;30039;51.462;6.892;2023-05-15T03:20:51;22.33;;;15.40;;
44328;SDS011;30039;51.462;6.892;2023-05-15T03:23:37;23.98;;;16.65;;
44328;SDS011;30039;51.462;6.892;2023-05-15T03:26:23;23.00;;;15.45;;
44328;SDS011;30039;51.462;6.892;2023-05-15T03:29:08;24.30;;;15.32;;
44328;SDS011;30039;51.462;6.892;2023-05-15T03:31:54;25.15;;;16.08;;
44328;SDS011;30039;51.462;6.892;2023-05-15T03:34:40;24.73;;;16.88;;
44328;SDS011;30039;51.462;6.892;2023-05-15T03:37:26;24.77;;;15.30;;
44328;SDS011;30039;51.462;6.892;2023-05-15T03:40:11;24.63;;;15.95;;
44328;SDS011;30039;51.462;6.892;2023-05-15T03:42:57;24.05;;;15.65;;
44328;SDS011;30039;51.462;6.892;2023-05-15T03:45:43;27.27;;;16.60;;
44328;SDS011;30039;51.462;6.892;2023-05-15T03:48:29;26.58;;;16.42;;
44328;SDS011;30039;51.462;6.892;2023-05-15T03:51:14;24.88;;;16.75;;
44328;SDS011;30039;51.462;6.892;2023-05-15T03:54:00;23.52;;;16.48;;
44328;SDS011;30039;51.462;6.892;2023-05-15T03:56:49;25.50;;;16.90;;
44328;SDS011;30039;51.462;6.892;2023-05-15T03:59:35;26.02;;;16.67;;
44328;SDS011;30039;51.462;6.892;2023-05-15T04:02:20;25.30;;;17.45;;
44328;SDS011;30039;51.462;6.892;2023-05-15T04:05:06;28.75;;;16.60;;
44328;SDS011;30039;51.462;6.892;2023-05-15T04:07:52;27.77;;;16.75;;
44328;SDS011;30039;51.462;6.892;2023-05-15T04:10:38;24.48;;;16.38;;
44328;SDS011;30039;51.462;6.892;2023-05-15T04:13:23;23.95;;;16.33;;
44328;SDS011;30039;51.462;6.892;2023-05-15T04:16:09;26.70;;;16.98;;
44328;SDS011;30039;51.462;6.892;2023-05-15T04:18:55;24.90;;;17.83;;
44328;SDS011;30039;51.462;6.892;2023-05-15T04:21:41;26.15;;;16.88;;
44328;SDS011;30039;51.462;6.892;2023-05-15T04:24:26;31.15;;;19.80;;
44328;SDS011;30039;51.462;6.892;2023-05-15T04:27:12;29.40;;;17.83;;
44328;SDS011;30039;51.462;6.892;2023-05-15T04:29:58;31.00;;;19.63;;
44328;SDS011;30039;51.462;6.892;2023-05-15T04:32:44;34.70;;;22.00;;
44328;SDS011;30039;51.462;6.892;2023-05-15T04:35:30;33.85;;;21.38;;
44328;SDS011;30039;51.462;6.892;2023-05-15T04:38:15;36.70;;;21.00;;
44328;SDS011;30039;51.462;6.892;2023-05-15T04:41:01;32.50;;;19.65;;
44328;SDS011;30039;51.462;6.892;2023-05-15T04:43:47;42.45;;;24.20;;
44328;SDS011;30039;51.462;6.892;2023-05-15T04:46:33;37.95;;;22.75;;
44328;SDS011;30039;51.462;6.892;2023-05-15T04:49:21;37.92;;;22.95;;
44328;SDS011;30039;51.462;6.892;2023-05-15T04:52:07;45.22;;;24.17;;
44328;SDS011;30039;51.462;6.892;2023-05-15T04:54:53;51.10;;;27.45;;
44328;SDS011;30039;51.462;6.892;2023-05-15T04:57:40;54.42;;;30.33;;
44328;SDS011;30039;51.462;6.892;2023-05-15T05:00:25;46.33;;;26.17;;
44328;SDS011;30039;51.462;6.892;2023-05-15T05:03:11;44.80;;;24.75;;
44328;SDS011;30039;51.462;6.892;2023-05-15T05:05:57;63.20;;;31.60;;
44328;SDS011;30039;51.462;6.892;2023-05-15T05:08:43;69.75;;;34.00;;
44328;SDS011;30039;51.462;6.892;2023-05-15T05:11:28;67.90;;;34.33;;
44328;SDS011;30039;51.462;6.892;2023-05-15T05:14:14;63.85;;;33.38;;
44328;SDS011;30039;51.462;6.892;2023-05-15T05:17:00;68.55;;;36.13;;
44328;SDS011;30039;51.462;6.892;2023-05-15T05:19:46;68.82;;;36.78;;
44328;SDS011;30039;51.462;6.892;2023-05-15T05:22:31;75.13;;;37.35;;
44328;SDS011;30039;51.462;6.892;2023-05-15T05:25:17;84.00;;;39.63;;
44328;SDS011;30039;51.462;6.892;2023-05-15T05:28:03;84.47;;;40.55;;
44328;SDS011;30039;51.462;6.892;2023-05-15T05:30:49;77.85;;;39.88;;
44328;SDS011;30039;51.462;6.892;2023-05-15T05:33:35;65.63;;;34.88;;
44328;SDS011;30039;51.462;6.892;2023-05-15T05:36:21;71.78;;;35.95;;
44328;SDS011;30039;51.462;6.892;2023-05-15T05:39:06;71.22;;;37.38;;
44328;SDS011;30039;51.462;6.892;2023-05-15T05:41:52;76.53;;;39.33;;
44328;SDS011;30039;51.462;6.892;2023-05-15T05:44:39;78.38;;;37.22;;
44328;SDS011;30039;51.462;6.892;2023-05-15T05:47:24;67.35;;;35.58;;
44328;SDS011;30039;51.462;6.892;2023-05-15T05:50:10;61.38;;;33.95;;
44328;SDS011;30039;51.462;6.892;2023-05-15T05:52:56;64.55;;;32.97;;
44328;SDS011;30039;51.462;6.892;2023-05-15T05:55:42;55.55;;;29.85;;
44328;SDS011;30039;51.462;6.892;2023-05-15T05:58:27;50.90;;;28.95;;
44328;SDS011;30039;51.462;6.892;2023-05-15T06:01:13;51.45;;;30.20;;
44328;SDS011;30039;51.462;6.892;2023-05-15T06:03:59;52.80;;;31.33;;
44328;SDS011;30039;51.462;6.892;2023-05-15T06:06:44;55.80;;;32.28;;
44328;SDS011;30039;51.462;6.892;2023-05-15T06:09:30;53.97;;;30.85;;
44328;SDS011;30039;51.462;6.892;2023-05-15T06:12:16;51.40;;;29.30;;
44328;SDS011;30039;51.462;6.892;2023-05-15T06:15:01;56.92;;;31.80;;
44328;SDS011;30039;51.462;6.892;2023-05-15T06:17:47;57.30;;;33.53;;
44328;SDS011;30039;51.462;6.892;2023-05-15T06:20:33;57.08;;;30.98;;
44328;SDS011;30039;51.462;6.892;2023-05-15T06:23:19;56.40;;;31.80;;
44328;SDS011;30039;51.462;6.892;2023-05-15T06:26:04;62.65;;;31.70;;
44328;SDS011;30039;51.462;6.892;2023-05-15T06:28:50;59.20;;;31.00;;
44328;SDS011;30039;51.462;6.892;2023-05-15T06:31:36;55.20;;;31.02;;
44328;SDS011;30039;51.462;6.892;2023-05-15T06:34:21;50.63;;;28.25;;
44328;SDS011;30039;51.462;6.892;2023-05-15T06:37:07;42.17;;;24.35;;
44328;SDS011;30039;51.462;6.892;2023-05-15T06:39:54;48.40;;;25.90;;
44328;SDS011;30039;51.462;6.892;2023-05-15T06:42:41;40.42;;;24.48;;
44328;SDS011;30039;51.462;6.892;2023-05-15T06:45:26;42.72;;;24.77;;
44328;SDS011;30039;51.462;6.892;2023-05-15T06:48:12;38.13;;;20.77;;
44328;SDS011;30039;51.462;6.892;2023-05-15T06:50:58;32.13;;;20.15;;
44328;SDS011;30039;51.462;6.892;2023-05-15T06:53:44;29.20;;;18.92;;
44328;SDS011;30039;51.462;6.892;2023-05-15T06:56:29;32.90;;;19.27;;
44328;SDS011;30039;51.462;6.892;2023-05-15T06:59:15;31.25;;;19.20;;
44328;SDS011;30039;51.462;6.892;2023-05-15T07:02:01;29.98;;;19.65;;
44328;SDS011;30039;51.462;6.892;2023-05-15T07:04:47;28.83;;;19.60;;
44328;SDS011;30039;51.462;6.892;2023-05-15T07:07:33;33.30;;;21.27;;
44328;SDS011;30039;51.462;6.892;2023-05-15T07:10:18;34.50;;;20.42;;
44328;SDS011;30039;51.462;6.892;2023-05-15T07:13:04;26.45;;;17.33;;
44328;SDS011;30039;51.462;6.892;2023-05-15T07:15:50;24.05;;;12.90;;
44328;SDS011;30039;51.462;6.892;2023-05-15T07:18:35;16.48;;;10.95;;
44328;SDS011;30039;51.462;6.892;2023-05-15T07:21:21;15.65;;;11.10;;
44328;SDS011;30039;51.462;6.892;2023-05-15T07:24:07;14.38;;;10.88;;
44328;SDS011;30039;51.462;6.892;2023-05-15T07:26:52;16.10;;;11.68;;
44328;SDS011;30039;51.462;6.892;2023-05-15T07:29:41;21.13;;;14.82;;
44328;SDS011;30039;51.462;6.892;2023-05-15T07:32:27;21.10;;;14.48;;
44328;SDS011;30039;51.462;6.892;2023-05-15T07:35:12;22.85;;;16.27;;
44328;SDS011;30039;51.462;6.892;2023-05-15T07:37:58;20.10;;;14.15;;
44328;SDS011;30039;51.462;6.892;2023-05-15T07:40:45;19.38;;;12.27;;
44328;SDS011;30039;51.462;6.892;2023-05-15T07:43:30;15.93;;;11.23;;
44328;SDS011;30039;51.462;6.892;2023-05-15T07:46:16;15.48;;;11.20;;
44328;SDS011;30039;51.462;6.892;2023-05-15T07:49:03;14.23;;;10.00;;
44328;SDS011;30039;51.462;6.892;2023-05-15T07:51:49;17.88;;;11.77;;
44328;SDS011;30039;51.462;6.892;2023-05-15T07:54:34;15.93;;;11.60;;
44328;SDS011;30039;51.462;6.892;2023-05-15T07:57:20;26.65;;;14.20;;
44328;SDS011;30039;51.462;6.892;2023-05-15T08:00:06;17.80;;;12.50;;
44328;SDS011;30039;51.462;6.892;2023-05-15T08:02:55;20.33;;;12.38;;
44328;SDS011;30039;51.462;6.892;2023-05-15T08:05:41;16.20;;;11.18;;
44328;SDS011;30039;51.462;6.892;2023-05-15T08:08:27;16.63;;;10.45;;
44328;SDS011;30039;51.462;6.892;2023-05-15T08:11:12;17.42;;;11.18;;
44328;SDS011;30039;51.462;6.892;2023-05-15T08:13:58;16.00;;;10.43;;
44328;SDS011;30039;51.462;6.892;2023-05-15T08:16:44;15.52;;;10.60;;
44328;SDS011;30039;51.462;6.892;2023-05-15T08:19:29;15.10;;;10.10;;
44328;SDS011;30039;51.462;6.892;2023-05-15T08:22:15;12.82;;;9.45;;
44328;SDS011;30039;51.462;6.892;2023-05-15T08:25:01;18.00;;;11.00;;
44328;SDS011;30039;51.462;6.892;2023-05-15T08:27:48;17.58;;;11.30;;
44328;SDS011;30039;51.462;6.892;2023-05-15T08:30:34;20.08;;;12.73;;
44328;SDS011;30039;51.462;6.892;2023-05-15T08:33:21;16.50;;;11.30;;
44328;SDS011;30039;51.462;6.892;2023-05-15T08:36:07;15.02;;;10.70;;
44328;SDS011;30039;51.462;6.892;2023-05-15T08:38:52;12.45;;;9.77;;
44328;SDS011;30039;51.462;6.892;2023-05-15T08:41:45;13.93;;;8.93;;
44328;SDS011;30039;51.462;6.892;2023-05-15T08:44:32;12.70;;;9.50;;
44328;SDS011;30039;51.462;6.892;2023-05-15T08:47:18;15.35;;;9.50;;
44328;SDS011;30039;51.462;6.892;2023-05-15T08:50:12;15.93;;;10.60;;
44328;SDS011;30039;51.462;6.892;2023-05-15T08:52:59;13.23;;;10.40;;
44328;SDS011;30039;51.462;6.892;2023-05-15T08:55:46;16.58;;;9.73;;
44328;SDS011;30039;51.462;6.892;2023-05-15T08:58:33;15.32;;;10.35;;
44328;SDS011;30039;51.462;6.892;2023-05-15T09:01:19;14.50;;;10.50;;
44328;SDS011;30039;51.462;6.892;2023-05-15T09:04:04;14.75;;;10.43;;
44328;SDS011;30039;51.462;6.892;2023-05-15T09:06:50;14.40;;;9.38;;
44328;SDS011;30039;51.462;6.892;2023-05-15T09:09:36;12.00;;;8.52;;
44328;SDS011;30039;51.462;6.892;2023-05-15T09:12:23;12.25;;;8.25;;
44328;SDS011;30039;51.462;6.892;2023-05-15T09:15:09;11.65;;;8.98;;
44328;SDS011;30039;51.462;6.892;2023-05-15T09:17:57;12.05;;;9.15;;
44328;SDS011;30039;51.462;6.892;2023-05-15T09:20:42;11.68;;;8.05;;
44328;SDS011;30039;51.462;6.892;2023-05-15T09:23:28;11.80;;;8.10;;
44328;SDS011;30039;51.462;6.892;2023-05-15T09:26:13;13.30;;;9.18;;
44328;SDS011;30039;51.462;6.892;2023-05-15T09:29:02;11.13;;;8.73;;
44328;SDS011;30039;51.462;6.892;2023-05-15T09:31:48;12.82;;;8.43;;
44328;SDS011;30039;51.462;6.892;2023-05-15T09:34:35;12.90;;;8.25;;
44328;SDS011;30039;51.462;6.892;2023-05-15T09:37:28;11.85;;;8.38;;
44328;SDS011;30039;51.462;6.892;2023-05-15T09:40:14;10.20;;;5.87;;
44328;SDS011;30039;51.462;6.892;2023-05-15T09:43:03;10.57;;;6.40;;
44328;SDS011;30039;51.462;6.892;2023-05-15T09:45:49;8.82;;;6.72;;
44328;SDS011;30039;51.462;6.892;2023-05-15T09:48:34;10.18;;;7.47;;
44328;SDS011;30039;51.462;6.892;2023-05-15T09:51:20;8.93;;;6.80;;
44328;SDS011;30039;51.462;6.892;2023-05-15T09:54:06;9.65;;;6.85;;
44328;SDS011;30039;51.462;6.892;2023-05-15T09:57:11;10.07;;;7.22;;
44328;SDS011;30039;51.462;6.892;2023-05-15T09:59:59;9.63;;;7.18;;
44328;SDS011;30039;51.462;6.892;2023-05-15T10:02:46;9.48;;;7.13;;
44328;SDS011;30039;51.462;6.892;2023-05-15T10:05:32;10.98;;;7.32;;
44328;SDS011;30039;51.462;6.892;2023-05-15T10:08:27;10.20;;;6.40;;
44328;SDS011;30039;51.462;6.892;2023-05-15T10:11:13;11.93;;;7.35;;
44328;SDS011;30039;51.462;6.892;2023-05-15T10:13:59;16.35;;;7.47;;
44328;SDS011;30039;51.462;6.892;2023-05-15T10:16:45;14.85;;;7.03;;
44328;SDS011;30039;51.462;6.892;2023-05-15T10:19:31;13.02;;;6.50;;
44328;SDS011;30039;51.462;6.892;2023-05-15T10:22:23;8.10;;;6.07;;
44328;SDS011;30039;51.462;6.892;2023-05-15T10:28:16;12.60;;;6.25;;
44328;SDS011;30039;51.462;6.892;2023-05-15T10:31:03;6.63;;;5.40;;
44328;SDS011;30039;51.462;6.892;2023-05-15T10:33:51;7.55;;;5.95;;
44328;SDS011;30039;51.462;6.892;2023-05-15T10:36:39;7.55;;;5.78;;
44328;SDS011;30039;51.462;6.892;2023-05-15T10:39:26;7.47;;;5.22;;
44328;SDS011;30039;51.462;6.892;2023-05-15T10:42:13;9.05;;;5.95;;
44328;SDS011;30039;51.462;6.892;2023-05-15T10:45:01;7.65;;;6.20;;
44328;SDS011;30039;51.462;6.892;2023-05-15T10:47:47;7.07;;;5.38;;
44328;SDS011;30039;51.462;6.892;2023-05-15T10:50:35;12.85;;;7.45;;
44328;SDS011;30039;51.462;6.892;2023-05-15T10:53:22;14.13;;;7.05;;
44328;SDS011;30039;51.462;6.892;2023-05-15T10:56:14;11.07;;;6.75;;
44328;SDS011;30039;51.462;6.892;2023-05-15T10:59:07;7.80;;;6.57;;
44328;SDS011;30039;51.462;6.892;2023-05-15T11:01:53;9.48;;;5.82;;
44328;SDS011;30039;51.462;6.892;2023-05-15T11:04:38;6.25;;;4.90;;
44328;SDS011;30039;51.462;6.892;2023-05-15T11:07:25;6.75;;;4.95;;
44328;SDS011;30039;51.462;6.892;2023-05-15T11:13:12;6.05;;;4.72;;
44328;SDS011;30039;51.462;6.892;2023-05-15T11:15:58;7.57;;;4.85;;
44328;SDS011;30039;51.462;6.892;2023-05-15T11:18:44;5.75;;;4.60;;
44328;SDS011;30039;51.462;6.892;2023-05-15T11:21:32;6.63;;;4.90;;
44328;SDS011;30039;51.462;6.892;2023-05-15T11:24:18;7.55;;;4.57;;
44328;SDS011;30039;51.462;6.892;2023-05-15T11:27:04;6.18;;;4.55;;
44328;SDS011;30039;51.462;6.892;2023-05-15T11:30:09;6.75;;;4.68;;
44328;SDS011;30039;51.462;6.892;2023-05-15T11:35:43;6.00;;;4.65;;
44328;SDS011;30039;51.462;6.892;2023-05-15T11:38:31;6.82;;;4.82;;
44328;SDS011;30039;51.462;6.892;2023-05-15T11:41:21;6.35;;;4.03;;
44328;SDS011;30039;51.462;6.892;2023-05-15T11:44:09;5.78;;;3.88;;
44328;SDS011;30039;51.462;6.892;2023-05-15T11:46:55;5.95;;;4.32;;
44328;SDS011;30039;51.462;6.892;2023-05-15T11:49:40;6.25;;;4.90;;
44328;SDS011;30039;51.462;6.892;2023-05-15T11:52:26;6.00;;;5.32;;
44328;SDS011;30039;51.462;6.892;2023-05-15T11:55:14;8.95;;;5.43;;
44328;SDS011;30039;51.462;6.892;2023-05-15T11:58:00;7.18;;;4.80;;
44328;SDS011;30039;51.462;6.892;2023-05-15T12:00:46;6.95;;;5.35;;
44328;SDS011;30039;51.462;6.892;2023-05-15T12:03:32;9.35;;;5.78;;
44328;SDS011;30039;51.462;6.892;2023-05-15T12:06:19;7.10;;;5.75;;
44328;SDS011;30039;51.462;6.892;2023-05-15T12:09:05;8.95;;;6.40;;
44328;SDS011;30039;51.462;6.892;2023-05-15T12:11:51;8.73;;;6.10;;
44328;SDS011;30039;51.462;6.892;2023-05-15T12:14:37;6.70;;;5.70;;
44328;SDS011;30039;51.462;6.892;2023-05-15T12:17:24;7.07;;;4.65;;
44328;SDS011;30039;51.462;6.892;2023-05-15T12:20:11;8.23;;;4.50;;
44328;SDS011;30039;51.462;6.892;2023-05-15T12:22:57;8.65;;;6.30;;
44328;SDS011;30039;51.462;6.892;2023-05-15T12:25:43;8.68;;;6.15;;
44328;SDS011;30039;51.462;6.892;2023-05-15T12:28:32;9.60;;;6.22;;
44328;SDS011;30039;51.462;6.892;2023-05-15T12:31:18;12.15;;;7.28;;
44328;SDS011;30039;51.462;6.892;2023-05-15T12:34:04;9.63;;;6.50;;
44328;SDS011;30039;51.462;6.892;2023-05-15T12:36:50;8.15;;;6.00;;
44328;SDS011;30039;51.462;6.892;2023-05-15T12:39:47;8.48;;;5.40;;
44328;SDS011;30039;51.462;6.892;2023-05-15T12:42:39;8.68;;;5.90;;
44328;SDS011;30039;51.462;6.892;2023-05-15T12:45:26;14.02;;;7.03;;
44328;SDS011;30039;51.462;6.892;2023-05-15T12:48:15;7.55;;;6.15;;
44328;SDS011;30039;51.462;6.892;2023-05-15T12:51:05;12.65;;;6.13;;
44328;SDS011;30039;51.462;6.892;2023-05-15T12:53:52;9.93;;;7.03;;
44328;SDS011;30039;51.462;6.892;2023-05-15T12:56:38;11.82;;;7.28;;
44328;SDS011;30039;51.462;6.892;2023-05-15T12:59:24;12.95;;;7.10;;
44328;SDS011;30039;51.462;6.892;2023-05-15T13:02:11;12.98;;;7.88;;
44328;SDS011;30039;51.462;6.892;2023-05-15T13:05:00;15.95;;;9.68;;
44328;SDS011;30039;51.462;6.892;2023-05-15T13:07:46;16.10;;;8.43;;
44328;SDS011;30039;51.462;6.892;2023-05-15T13:10:35;11.77;;;8.50;;
44328;SDS011;30039;51.462;6.892;2023-05-15T13:13:21;10.95;;;8.35;;
44328;SDS011;30039;51.462;6.892;2023-05-15T13:16:16;12.50;;;8.65;;
44328;SDS011;30039;51.462;6.892;2023-05-15T13:19:02;6.25;;;4.75;;
44328;SDS011;30039;51.462;6.892;2023-05-15T13:21:47;8.98;;;5.78;;
44328;SDS011;30039;51.462;6.892;2023-05-15T13:24:35;10.30;;;8.30;;
44328;SDS011;30039;51.462;6.892;2023-05-15T13:27:20;12.23;;;9.80;;
44328;SDS011;30039;51.462;6.892;2023-05-15T13:30:06;14.30;;;11.02;;
44328;SDS011;30039;51.462;6.892;2023-05-15T13:32:53;17.77;;;11.75;;
44328;SDS011;30039;51.462;6.892;2023-05-15T13:35:40;19.13;;;12.75;;
44328;SDS011;30039;51.462;6.892;2023-05-15T13:38:27;18.05;;;12.70;;
44328;SDS011;30039;51.462;6.892;2023-05-15T13:41:12;15.95;;;12.00;;
44328;SDS011;30039;51.462;6.892;2023-05-15T13:43:58;18.27;;;12.38;;
44328;SDS011;30039;51.462;6.892;2023-05-15T13:46:48;15.80;;;12.82;;
44328;SDS011;30039;51.462;6.892;2023-05-15T13:49:34;14.30;;;10.90;;
44328;SDS011;30039;51.462;6.892;2023-05-15T13:52:19;16.65;;;11.57;;
44328;SDS011;30039;51.462;6.892;2023-05-15T13:55:05;13.75;;;11.95;;
44328;SDS011;30039;51.462;6.892;2023-05-15T13:57:53;19.02;;;12.50;;
44328;SDS011;30039;51.462;6.892;2023-05-15T14:00:41;17.00;;;12.43;;
44328;SDS011;30039;51.462;6.892;2023-05-15T14:03:27;13.55;;;10.85;;
44328;SDS011;30039;51.462;6.892;2023-05-15T14:06:12;15.77;;;11.18;;
44328;SDS011;30039;51.462;6.892;2023-05-15T14:08:58;15.07;;;11.02;;
44328;SDS011;30039;51.462;6.892;2023-05-15T14:11:44;15.35;;;11.55;;
44328;SDS011;30039;51.462;6.892;2023-05-15T14:14:30;14.68;;;10.27;;
44328;SDS011;30039;51.462;6.892;2023-05-15T14:17:17;17.35;;;10.70;;
44328;SDS011;30039;51.462;6.892;2023-05-15T14:20:03;17.85;;;10.65;;
44328;SDS011;30039;51.462;6.892;2023-05-15T14:22:50;11.50;;;8.80;;
44328;SDS011;30039;51.462;6.892;2023-05-15T14:25:56;16.13;;;11.32;;
44328;SDS011;30039;51.462;6.892;2023-05-15T14:28:41;16.75;;;11.18;;
44328;SDS011;30039;51.462;6.892;2023-05-15T14:31:28;17.88;;;12.23;;
44328;SDS011;30039;51.462;6.892;2023-05-15T14:34:14;15.45;;;10.98;;
44328;SDS011;30039;51.462;6.892;2023-05-15T14:37:00;18.85;;;11.30;;
44328;SDS011;30039;51.462;6.892;2023-05-15T14:39:47;18.20;;;11.25;;
44328;SDS011;30039;51.462;6.892;2023-05-15T14:42:32;13.00;;;10.07;;
44328;SDS011;30039;51.462;6.892;2023-05-15T14:45:18;13.10;;;10.10;;
44328;SDS011;30039;51.462;6.892;2023-05-15T14:48:04;16.40;;;10.27;;
44328;SDS011;30039;51.462;6.892;2023-05-15T14:50:50;14.57;;;9.82;;
44328;SDS011;30039;51.462;6.892;2023-05-15T14:53:35;13.10;;;9.48;;
44328;SDS011;30039;51.462;6.892;2023-05-15T14:56:21;13.65;;;10.18;;
44328;SDS011;30039;51.462;6.892;2023-05-15T14:59:07;14.25;;;9.65;;
44328;SDS011;30039;51.462;6.892;2023-05-15T15:01:53;15.00;;;10.70;;
44328;SDS011;30039;51.462;6.892;2023-05-15T15:04:38;14.85;;;9.38;;
44328;SDS011;30039;51.462;6.892;2023-05-15T15:07:28;15.88;;;10.95;;
44328;SDS011;30039;51.462;6.892;2023-05-15T15:10:15;15.70;;;11.07;;
44328;SDS011;30039;51.462;6.892;2023-05-15T15:13:00;16.02;;;11.68;;
44328;SDS011;30039;51.462;6.892;2023-05-15T15:15:46;12.82;;;9.98;;
44328;SDS011;30039;51.462;6.892;2023-05-15T15:18:32;13.52;;;9.25;;
44328;SDS011;30039;51.462;6.892;2023-05-15T15:21:18;12.77;;;8.02;;
44328;SDS011;30039;51.462;6.892;2023-05-15T15:24:04;13.63;;;8.43;;
44328;SDS011;30039;51.462;6.892;2023-05-15T15:26:50;11.45;;;7.90;;
44328;SDS011;30039;51.462;6.892;2023-05-15T15:29:36;15.07;;;8.60;;
44328;SDS011;30039;51.462;6.892;2023-05-15T15:32:22;13.13;;;7.65;;
44328;SDS011;30039;51.462;6.892;2023-05-15T15:35:07;14.00;;;10.18;;
44328;SDS011;30039;51.462;6.892;2023-05-15T15:37:53;19.52;;;11.68;;
44328;SDS011;30039;51.462;6.892;2023-05-15T15:40:39;14.88;;;9.95;;
44328;SDS011;30039;51.462;6.892;2023-05-15T15:43:26;17.70;;;12.25;;
44328;SDS011;30039;51.462;6.892;2023-05-15T15:46:12;20.70;;;12.35;;
44328;SDS011;30039;51.462;6.892;2023-05-15T15:48:58;20.92;;;13.80;;
44328;SDS011;30039;51.462;6.892;2023-05-15T15:51:44;19.63;;;12.88;;
44328;SDS011;30039;51.462;6.892;2023-05-15T15:54:30;17.90;;;13.48;;
44328;SDS011;30039;51.462;6.892;2023-05-15T15:57:20;20.35;;;12.75;;
44328;SDS011;30039;51.462;6.892;2023-05-15T16:00:06;18.65;;;11.40;;
44328;SDS011;30039;51.462;6.892;2023-05-15T16:02:53;19.95;;;13.57;;
44328;SDS011;30039;51.462;6.892;2023-05-15T16:05:39;21.92;;;12.98;;
44328;SDS011;30039;51.462;6.892;2023-05-15T16:08:26;20.58;;;12.90;;
44328;SDS011;30039;51.462;6.892;2023-05-15T16:11:12;14.18;;;9.95;;
44328;SDS011;30039;51.462;6.892;2023-05-15T16:13:58;16.95;;;11.25;;
44328;SDS011;30039;51.462;6.892;2023-05-15T16:16:44;18.70;;;11.80;;
44328;SDS011;30039;51.462;6.892;2023-05-15T16:19:30;19.55;;;11.55;;
44328;SDS011;30039;51.462;6.892;2023-05-15T16:22:15;18.15;;;11.07;;
44328;SDS011;30039;51.462;6.892;2023-05-15T16:25:01;16.55;;;10.50;;
44328;SDS011;30039;51.462;6.892;2023-05-15T16:27:47;16.35;;;9.98;;
44328;SDS011;30039;51.462;6.892;2023-05-15T16:30:33;17.88;;;11.55;;
44328;SDS011;30039;51.462;6.892;2023-05-15T16:33:19;21.23;;;10.55;;
44328;SDS011;30039;51.462;6.892;2023-05-15T16:36:04;20.63;;;12.75;;
44328;SDS011;30039;51.462;6.892;2023-05-15T16:38:51;15.02;;;9.80;;